sensor_id;sensor_type;location;lat;lon;timestamp;P1;durP1;ratioP1;P2;durP2;ratioP2
21899;SDS011;11114;50.658;12.704;2023-05-28T00:00:52;10.60;;;9.50;;
21899;SDS011;11114;50.658;12.704;2023-05-28T00:03:45;13.02;;;9.77;;
21899;SDS011;11114;50.658;12.704;2023-05-28T00:06:32;11.25;;;9.82;;
21899;SDS011;11114;50.658;12.704;2023-05-28T00:09:19;14.43;;;10.38;;
21899;SDS011;11114;50.658;12.704;2023-05-28T00:12:06;11.20;;;9.63;;
21899;SDS011;11114;50.658;12.704;2023-05-28T00:14:53;12.10;;;10.00;;
21899;SDS011;11114;50.658;12.704;2023-05-28T00:17:39;12.30;;;9.85;;
21899;SDS011;11114;50.658;12.704;2023-05-28T00:20:26;12.60;;;9.50;;
21899;SDS011;11114;50.658;12.704;2023-05-28T00:23:13;11.20;;;9.75;;
21899;SDS011;11114;50.658;12.704;2023-05-28T00:26:00;10.73;;;9.15;;
21899;SDS011;11114;50.658;12.704;2023-05-28T00:28:47;10.40;;;9.30;;
21899;SDS011;11114;50.658;12.704;2023-05-28T00:31:36;10.25;;;9.18;;
21899;SDS011;11114;50.658;12.704;2023-05-28T00:34:22;12.75;;;9.80;;
21899;SDS011;11114;50.658;12.704;2023-05-28T00:37:09;11.23;;;9.32;;
21899;SDS011;11114;50.658;12.704;2023-05-28T00:39:56;11.52;;;10.02;;
21899;SDS011;11114;50.658;12.704;2023-05-28T00:42:42;11.35;;;10.13;;
21899;SDS011;11114;50.658;12.704;2023-05-28T00:45:29;10.77;;;9.70;;
21899;SDS011;11114;50.658;12.704;2023-05-28T00:48:15;11.43;;;9.70;;
21899;SDS011;11114;50.658;12.704;2023-05-28T00:51:02;11.75;;;9.75;;
21899;SDS011;11114;50.658;12.704;2023-05-28T00:53:49;11.45;;;9.43;;
21899;SDS011;11114;50.658;12.704;2023-05-28T00:56:36;12.07;;;10.05;;
21899;SDS011;11114;50.658;12.704;2023-05-28T00:59:24;11.25;;;9.70;;
21899;SDS011;11114;50.658;12.704;2023-05-28T01:02:11;11.77;;;9.80;;
21899;SDS011;11114;50.658;12.704;2023-05-28T01:04:58;10.50;;;9.40;;
21899;SDS011;11114;50.658;12.704;2023-05-28T01:07:45;12.55;;;9.68;;
21899;SDS011;11114;50.658;12.704;2023-05-28T01:10:33;12.30;;;10.05;;
21899;SDS011;11114;50.658;12.704;2023-05-28T01:13:20;12.02;;;9.80;;
21899;SDS011;11114;50.658;12.704;2023-05-28T01:16:07;13.20;;;10.30;;
21899;SDS011;11114;50.658;12.704;2023-05-28T01:18:55;13.50;;;9.35;;
21899;SDS011;11114;50.658;12.704;2023-05-28T01:21:43;10.70;;;9.15;;
21899;SDS011;11114;50.658;12.704;2023-05-28T01:24:32;9.88;;;8.85;;
21899;SDS011;11114;50.658;12.704;2023-05-28T01:27:20;10.32;;;9.10;;
21899;SDS011;11114;50.658;12.704;2023-05-28T01:30:10;11.45;;;9.70;;
21899;SDS011;11114;50.658;12.704;2023-05-28T01:35:44;10.52;;;9.40;;
21899;SDS011;11114;50.658;12.704;2023-05-28T01:38:31;9.98;;;8.95;;
21899;SDS011;11114;50.658;12.704;2023-05-28T01:41:21;9.27;;;8.38;;
21899;SDS011;11114;50.658;12.704;2023-05-28T01:44:08;10.25;;;9.25;;
21899;SDS011;11114;50.658;12.704;2023-05-28T01:46:58;12.27;;;9.75;;
21899;SDS011;11114;50.658;12.704;2023-05-28T01:49:46;9.70;;;8.75;;
21899;SDS011;11114;50.658;12.704;2023-05-28T01:52:33;9.85;;;8.90;;
21899;SDS011;11114;50.658;12.704;2023-05-28T01:55:19;11.30;;;9.88;;
21899;SDS011;11114;50.658;12.704;2023-05-28T01:58:07;12.25;;;9.85;;
21899;SDS011;11114;50.658;12.704;2023-05-28T02:00:58;10.63;;;8.77;;
21899;SDS011;11114;50.658;12.704;2023-05-28T02:03:57;10.32;;;8.93;;
21899;SDS011;11114;50.658;12.704;2023-05-28T02:06:47;10.05;;;9.13;;
21899;SDS011;11114;50.658;12.704;2023-05-28T02:09:33;10.20;;;9.30;;
21899;SDS011;11114;50.658;12.704;2023-05-28T02:12:20;9.63;;;8.55;;
21899;SDS011;11114;50.658;12.704;2023-05-28T02:15:06;10.65;;;9.05;;
21899;SDS011;11114;50.658;12.704;2023-05-28T02:17:54;10.30;;;8.88;;
21899;SDS011;11114;50.658;12.704;2023-05-28T02:20:42;10.15;;;9.15;;
21899;SDS011;11114;50.658;12.704;2023-05-28T02:23:29;10.35;;;9.35;;
21899;SDS011;11114;50.658;12.704;2023-05-28T02:26:15;10.88;;;9.27;;
21899;SDS011;11114;50.658;12.704;2023-05-28T02:29:04;10.30;;;9.30;;
21899;SDS011;11114;50.658;12.704;2023-05-28T02:31:54;10.75;;;9.75;;
21899;SDS011;11114;50.658;12.704;2023-05-28T02:34:40;11.10;;;9.50;;
21899;SDS011;11114;50.658;12.704;2023-05-28T02:37:27;10.25;;;9.27;;
21899;SDS011;11114;50.658;12.704;2023-05-28T02:40:16;10.98;;;9.82;;
21899;SDS011;11114;50.658;12.704;2023-05-28T02:43:02;10.30;;;9.32;;
21899;SDS011;11114;50.658;12.704;2023-05-28T02:45:49;11.15;;;9.65;;
21899;SDS011;11114;50.658;12.704;2023-05-28T02:48:36;10.07;;;9.18;;
21899;SDS011;11114;50.658;12.704;2023-05-28T02:51:23;10.10;;;9.18;;
21899;SDS011;11114;50.658;12.704;2023-05-28T02:54:16;10.27;;;9.27;;
21899;SDS011;11114;50.658;12.704;2023-05-28T02:57:02;10.45;;;9.35;;
21899;SDS011;11114;50.658;12.704;2023-05-28T02:59:49;10.55;;;9.52;;
21899;SDS011;11114;50.658;12.704;2023-05-28T03:02:36;10.65;;;9.65;;
21899;SDS011;11114;50.658;12.704;2023-05-28T03:05:23;11.38;;;10.13;;
21899;SDS011;11114;50.658;12.704;2023-05-28T03:08:10;10.77;;;9.77;;
21899;SDS011;11114;50.658;12.704;2023-05-28T03:10:58;10.90;;;9.80;;
21899;SDS011;11114;50.658;12.704;2023-05-28T03:13:45;10.68;;;9.77;;
21899;SDS011;11114;50.658;12.704;2023-05-28T03:16:32;11.13;;;10.20;;
21899;SDS011;11114;50.658;12.704;2023-05-28T03:19:29;11.70;;;10.48;;
21899;SDS011;11114;50.658;12.704;2023-05-28T03:22:18;12.00;;;10.90;;
21899;SDS011;11114;50.658;12.704;2023-05-28T03:25:05;11.32;;;10.32;;
21899;SDS011;11114;50.658;12.704;2023-05-28T03:27:54;11.60;;;10.50;;
21899;SDS011;11114;50.658;12.704;2023-05-28T03:30:50;11.13;;;10.23;;
21899;SDS011;11114;50.658;12.704;2023-05-28T03:33:36;11.73;;;10.68;;
21899;SDS011;11114;50.658;12.704;2023-05-28T03:36:23;12.27;;;10.93;;
21899;SDS011;11114;50.658;12.704;2023-05-28T03:39:10;11.93;;;10.93;;
21899;SDS011;11114;50.658;12.704;2023-05-28T03:41:57;11.55;;;10.55;;
21899;SDS011;11114;50.658;12.704;2023-05-28T03:44:46;11.55;;;10.45;;
21899;SDS011;11114;50.658;12.704;2023-05-28T03:47:34;12.30;;;11.25;;
21899;SDS011;11114;50.658;12.704;2023-05-28T03:50:22;12.40;;;11.13;;
21899;SDS011;11114;50.658;12.704;2023-05-28T03:53:08;11.55;;;10.48;;
21899;SDS011;11114;50.658;12.704;2023-05-28T03:55:55;11.35;;;10.43;;
21899;SDS011;11114;50.658;12.704;2023-05-28T03:58:44;11.82;;;10.73;;
21899;SDS011;11114;50.658;12.704;2023-05-28T04:01:31;12.15;;;11.13;;
21899;SDS011;11114;50.658;12.704;2023-05-28T04:04:17;12.55;;;10.90;;
21899;SDS011;11114;50.658;12.704;2023-05-28T04:07:04;12.70;;;11.45;;
21899;SDS011;11114;50.658;12.704;2023-05-28T04:09:50;12.07;;;11.07;;
21899;SDS011;11114;50.658;12.704;2023-05-28T04:12:37;12.40;;;11.23;;
21899;SDS011;11114;50.658;12.704;2023-05-28T04:15:24;12.45;;;11.07;;
21899;SDS011;11114;50.658;12.704;2023-05-28T04:18:11;12.50;;;11.25;;
21899;SDS011;11114;50.658;12.704;2023-05-28T04:20:59;12.57;;;11.38;;
21899;SDS011;11114;50.658;12.704;2023-05-28T04:23:46;12.95;;;11.68;;
21899;SDS011;11114;50.658;12.704;2023-05-28T04:26:33;11.82;;;10.73;;
21899;SDS011;11114;50.658;12.704;2023-05-28T04:29:19;12.00;;;10.80;;
21899;SDS011;11114;50.658;12.704;2023-05-28T04:32:09;11.95;;;10.85;;
21899;SDS011;11114;50.658;12.704;2023-05-28T04:34:55;12.95;;;11.57;;
21899;SDS011;11114;50.658;12.704;2023-05-28T04:37:42;12.35;;;11.25;;
21899;SDS011;11114;50.658;12.704;2023-05-28T04:40:28;11.82;;;10.75;;
21899;SDS011;11114;50.658;12.704;2023-05-28T04:43:15;11.85;;;10.75;;
21899;SDS011;11114;50.658;12.704;2023-05-28T04:46:03;12.02;;;10.80;;
21899;SDS011;11114;50.658;12.704;2023-05-28T04:48:50;11.95;;;10.70;;
21899;SDS011;11114;50.658;12.704;2023-05-28T04:51:37;12.27;;;11.00;;
21899;SDS011;11114;50.658;12.704;2023-05-28T04:54:27;12.10;;;11.00;;
21899;SDS011;11114;50.658;12.704;2023-05-28T04:57:14;12.55;;;11.38;;
21899;SDS011;11114;50.658;12.704;2023-05-28T05:00:00;12.73;;;11.50;;
21899;SDS011;11114;50.658;12.704;2023-05-28T05:02:48;12.48;;;11.10;;
21899;SDS011;11114;50.658;12.704;2023-05-28T05:05:35;12.60;;;10.85;;
21899;SDS011;11114;50.658;12.704;2023-05-28T05:08:21;12.00;;;10.90;;
21899;SDS011;11114;50.658;12.704;2023-05-28T05:11:08;12.23;;;11.10;;
21899;SDS011;11114;50.658;12.704;2023-05-28T05:13:55;12.20;;;10.85;;
21899;SDS011;11114;50.658;12.704;2023-05-28T05:16:42;12.00;;;11.00;;
21899;SDS011;11114;50.658;12.704;2023-05-28T05:19:29;13.57;;;11.52;;
21899;SDS011;11114;50.658;12.704;2023-05-28T05:22:16;12.65;;;11.20;;
21899;SDS011;11114;50.658;12.704;2023-05-28T05:25:02;11.93;;;10.82;;
21899;SDS011;11114;50.658;12.704;2023-05-28T05:27:49;13.80;;;11.65;;
21899;SDS011;11114;50.658;12.704;2023-05-28T05:30:37;12.85;;;10.95;;
21899;SDS011;11114;50.658;12.704;2023-05-28T05:33:24;11.70;;;10.60;;
21899;SDS011;11114;50.658;12.704;2023-05-28T05:36:34;12.30;;;10.90;;
21899;SDS011;11114;50.658;12.704;2023-05-28T05:39:40;12.25;;;11.05;;
21899;SDS011;11114;50.658;12.704;2023-05-28T05:42:46;11.55;;;10.50;;
21899;SDS011;11114;50.658;12.704;2023-05-28T05:45:33;11.90;;;10.52;;
21899;SDS011;11114;50.658;12.704;2023-05-28T05:48:20;11.57;;;10.57;;
21899;SDS011;11114;50.658;12.704;2023-05-28T05:51:07;11.93;;;10.70;;
21899;SDS011;11114;50.658;12.704;2023-05-28T05:53:54;13.30;;;11.90;;
21899;SDS011;11114;50.658;12.704;2023-05-28T05:56:41;16.70;;;14.73;;
21899;SDS011;11114;50.658;12.704;2023-05-28T05:59:28;16.38;;;13.25;;
21899;SDS011;11114;50.658;12.704;2023-05-28T06:02:15;13.00;;;11.80;;
21899;SDS011;11114;50.658;12.704;2023-05-28T06:05:02;12.70;;;11.40;;
21899;SDS011;11114;50.658;12.704;2023-05-28T06:08:10;11.90;;;10.13;;
21899;SDS011;11114;50.658;12.704;2023-05-28T06:10:59;11.18;;;10.13;;
21899;SDS011;11114;50.658;12.704;2023-05-28T06:13:45;11.73;;;10.55;;
21899;SDS011;11114;50.658;12.704;2023-05-28T06:16:31;13.43;;;10.80;;
21899;SDS011;11114;50.658;12.704;2023-05-28T06:19:19;12.23;;;10.85;;
21899;SDS011;11114;50.658;12.704;2023-05-28T06:22:05;12.60;;;11.30;;
21899;SDS011;11114;50.658;12.704;2023-05-28T06:24:52;12.00;;;10.50;;
21899;SDS011;11114;50.658;12.704;2023-05-28T06:27:41;12.13;;;10.88;;
21899;SDS011;11114;50.658;12.704;2023-05-28T06:30:28;11.30;;;10.10;;
21899;SDS011;11114;50.658;12.704;2023-05-28T06:33:15;11.35;;;10.25;;
21899;SDS011;11114;50.658;12.704;2023-05-28T06:36:02;12.80;;;10.27;;
21899;SDS011;11114;50.658;12.704;2023-05-28T06:38:48;14.60;;;10.73;;
21899;SDS011;11114;50.658;12.704;2023-05-28T06:41:35;11.82;;;10.63;;
21899;SDS011;11114;50.658;12.704;2023-05-28T06:44:22;12.05;;;9.90;;
21899;SDS011;11114;50.658;12.704;2023-05-28T06:47:14;10.80;;;9.60;;
21899;SDS011;11114;50.658;12.704;2023-05-28T06:50:03;10.38;;;9.27;;
21899;SDS011;11114;50.658;12.704;2023-05-28T06:52:52;11.63;;;8.98;;
21899;SDS011;11114;50.658;12.704;2023-05-28T06:55:39;11.50;;;9.38;;
21899;SDS011;11114;50.658;12.704;2023-05-28T06:58:44;10.70;;;9.60;;
21899;SDS011;11114;50.658;12.704;2023-05-28T07:01:58;10.68;;;9.68;;
21899;SDS011;11114;50.658;12.704;2023-05-28T07:05:03;9.77;;;8.88;;
21899;SDS011;11114;50.658;12.704;2023-05-28T07:07:53;10.30;;;9.40;;
21899;SDS011;11114;50.658;12.704;2023-05-28T07:10:41;13.02;;;10.15;;
21899;SDS011;11114;50.658;12.704;2023-05-28T07:13:28;12.88;;;10.57;;
21899;SDS011;11114;50.658;12.704;2023-05-28T07:16:14;14.05;;;12.75;;
21899;SDS011;11114;50.658;12.704;2023-05-28T07:19:02;13.35;;;10.88;;
21899;SDS011;11114;50.658;12.704;2023-05-28T07:21:49;13.40;;;11.02;;
21899;SDS011;11114;50.658;12.704;2023-05-28T07:24:36;11.45;;;10.25;;
21899;SDS011;11114;50.658;12.704;2023-05-28T07:27:23;11.93;;;10.70;;
21899;SDS011;11114;50.658;12.704;2023-05-28T07:30:10;12.15;;;9.88;;
21899;SDS011;11114;50.658;12.704;2023-05-28T07:32:57;12.95;;;10.40;;
21899;SDS011;11114;50.658;12.704;2023-05-28T07:35:44;10.93;;;9.85;;
21899;SDS011;11114;50.658;12.704;2023-05-28T07:38:31;12.50;;;11.35;;
21899;SDS011;11114;50.658;12.704;2023-05-28T07:41:19;12.20;;;11.00;;
21899;SDS011;11114;50.658;12.704;2023-05-28T07:44:15;15.52;;;12.60;;
21899;SDS011;11114;50.658;12.704;2023-05-28T07:47:04;12.18;;;10.98;;
21899;SDS011;11114;50.658;12.704;2023-05-28T07:50:10;11.75;;;10.55;;
21899;SDS011;11114;50.658;12.704;2023-05-28T07:53:16;11.70;;;10.45;;
21899;SDS011;11114;50.658;12.704;2023-05-28T07:56:05;11.90;;;10.65;;
21899;SDS011;11114;50.658;12.704;2023-05-28T07:58:52;11.82;;;10.63;;
21899;SDS011;11114;50.658;12.704;2023-05-28T08:01:38;12.93;;;10.60;;
21899;SDS011;11114;50.658;12.704;2023-05-28T08:04:25;13.23;;;10.43;;
21899;SDS011;11114;50.658;12.704;2023-05-28T08:07:11;12.20;;;10.68;;
21899;SDS011;11114;50.658;12.704;2023-05-28T08:10:02;11.15;;;10.02;;
21899;SDS011;11114;50.658;12.704;2023-05-28T08:12:50;11.13;;;10.02;;
21899;SDS011;11114;50.658;12.704;2023-05-28T08:15:37;11.60;;;9.93;;
21899;SDS011;11114;50.658;12.704;2023-05-28T08:18:27;12.20;;;10.27;;
21899;SDS011;11114;50.658;12.704;2023-05-28T08:21:14;11.40;;;10.00;;
21899;SDS011;11114;50.658;12.704;2023-05-28T08:24:00;11.30;;;10.20;;
21899;SDS011;11114;50.658;12.704;2023-05-28T08:26:48;11.73;;;9.63;;
21899;SDS011;11114;50.658;12.704;2023-05-28T08:29:35;11.50;;;10.18;;
21899;SDS011;11114;50.658;12.704;2023-05-28T08:32:23;10.90;;;9.73;;
21899;SDS011;11114;50.658;12.704;2023-05-28T08:35:10;11.13;;;10.02;;
21899;SDS011;11114;50.658;12.704;2023-05-28T08:37:57;11.02;;;9.73;;
21899;SDS011;11114;50.658;12.704;2023-05-28T08:40:56;10.55;;;9.45;;
21899;SDS011;11114;50.658;12.704;2023-05-28T08:43:43;10.52;;;9.45;;
21899;SDS011;11114;50.658;12.704;2023-05-28T08:46:30;10.00;;;9.00;;
21899;SDS011;11114;50.658;12.704;2023-05-28T08:49:39;11.63;;;9.52;;
21899;SDS011;11114;50.658;12.704;2023-05-28T08:52:35;11.40;;;9.75;;
21899;SDS011;11114;50.658;12.704;2023-05-28T08:55:21;10.43;;;9.25;;
21899;SDS011;11114;50.658;12.704;2023-05-28T08:58:16;10.38;;;9.38;;
21899;SDS011;11114;50.658;12.704;2023-05-28T09:01:05;12.67;;;11.50;;
21899;SDS011;11114;50.658;12.704;2023-05-28T09:03:55;11.55;;;9.30;;
21899;SDS011;11114;50.658;12.704;2023-05-28T09:06:48;9.95;;;9.05;;
21899;SDS011;11114;50.658;12.704;2023-05-28T09:10:02;10.75;;;9.65;;
21899;SDS011;11114;50.658;12.704;2023-05-28T09:12:56;10.20;;;9.30;;
21899;SDS011;11114;50.658;12.704;2023-05-28T09:15:44;11.20;;;9.10;;
21899;SDS011;11114;50.658;12.704;2023-05-28T09:18:37;11.13;;;10.13;;
21899;SDS011;11114;50.658;12.704;2023-05-28T09:21:26;10.45;;;9.30;;
21899;SDS011;11114;50.658;12.704;2023-05-28T09:24:13;10.10;;;9.10;;
21899;SDS011;11114;50.658;12.704;2023-05-28T09:27:18;11.15;;;10.10;;
21899;SDS011;11114;50.658;12.704;2023-05-28T09:30:07;10.73;;;9.70;;
21899;SDS011;11114;50.658;12.704;2023-05-28T09:33:04;10.23;;;9.35;;
21899;SDS011;11114;50.658;12.704;2023-05-28T09:36:01;9.73;;;8.88;;
21899;SDS011;11114;50.658;12.704;2023-05-28T09:38:48;28.20;;;9.48;;
21899;SDS011;11114;50.658;12.704;2023-05-28T09:41:35;10.70;;;9.63;;
21899;SDS011;11114;50.658;12.704;2023-05-28T09:44:22;9.82;;;8.93;;
21899;SDS011;11114;50.658;12.704;2023-05-28T09:47:13;10.88;;;9.75;;
21899;SDS011;11114;50.658;12.704;2023-05-28T09:50:04;10.93;;;9.90;;
21899;SDS011;11114;50.658;12.704;2023-05-28T09:52:52;11.05;;;9.35;;
21899;SDS011;11114;50.658;12.704;2023-05-28T09:58:30;10.30;;;9.30;;
21899;SDS011;11114;50.658;12.704;2023-05-28T10:01:20;10.48;;;9.48;;
21899;SDS011;11114;50.658;12.704;2023-05-28T10:07:00;10.07;;;9.18;;
21899;SDS011;11114;50.658;12.704;2023-05-28T10:12:36;9.88;;;8.85;;
21899;SDS011;11114;50.658;12.704;2023-05-28T10:15:25;10.57;;;9.50;;
21899;SDS011;11114;50.658;12.704;2023-05-28T10:18:13;10.20;;;9.20;;
21899;SDS011;11114;50.658;12.704;2023-05-28T10:21:03;10.65;;;8.23;;
21899;SDS011;11114;50.658;12.704;2023-05-28T10:23:51;9.77;;;8.82;;
21899;SDS011;11114;50.658;12.704;2023-05-28T10:26:39;10.60;;;8.93;;
21899;SDS011;11114;50.658;12.704;2023-05-28T10:29:25;9.75;;;8.85;;
21899;SDS011;11114;50.658;12.704;2023-05-28T10:32:14;10.38;;;8.68;;
21899;SDS011;11114;50.658;12.704;2023-05-28T10:35:02;10.30;;;9.00;;
21899;SDS011;11114;50.658;12.704;2023-05-28T10:38:01;10.05;;;9.10;;
21899;SDS011;11114;50.658;12.704;2023-05-28T10:40:53;11.02;;;9.95;;
21899;SDS011;11114;50.658;12.704;2023-05-28T10:43:49;10.40;;;9.43;;
21899;SDS011;11114;50.658;12.704;2023-05-28T10:46:40;10.40;;;9.45;;
21899;SDS011;11114;50.658;12.704;2023-05-28T10:49:27;10.85;;;9.52;;
21899;SDS011;11114;50.658;12.704;2023-05-28T10:52:22;10.40;;;9.43;;
21899;SDS011;11114;50.658;12.704;2023-05-28T10:55:11;10.00;;;9.20;;
21899;SDS011;11114;50.658;12.704;2023-05-28T10:58:06;10.40;;;9.40;;
21899;SDS011;11114;50.658;12.704;2023-05-28T11:00:58;10.63;;;9.43;;
21899;SDS011;11114;50.658;12.704;2023-05-28T11:04:05;12.65;;;11.05;;
21899;SDS011;11114;50.658;12.704;2023-05-28T11:06:51;10.35;;;9.45;;
21899;SDS011;11114;50.658;12.704;2023-05-28T11:09:38;9.57;;;8.63;;
21899;SDS011;11114;50.658;12.704;2023-05-28T11:12:29;9.52;;;8.63;;
21899;SDS011;11114;50.658;12.704;2023-05-28T11:15:17;10.05;;;9.00;;
21899;SDS011;11114;50.658;12.704;2023-05-28T11:18:04;9.57;;;8.68;;
21899;SDS011;11114;50.658;12.704;2023-05-28T11:21:01;9.50;;;8.50;;
21899;SDS011;11114;50.658;12.704;2023-05-28T11:23:58;11.20;;;8.93;;
21899;SDS011;11114;50.658;12.704;2023-05-28T11:26:46;10.05;;;8.63;;
21899;SDS011;11114;50.658;12.704;2023-05-28T11:29:32;8.60;;;7.80;;
21899;SDS011;11114;50.658;12.704;2023-05-28T11:32:19;9.02;;;8.18;;
21899;SDS011;11114;50.658;12.704;2023-05-28T11:35:09;9.27;;;8.00;;
21899;SDS011;11114;50.658;12.704;2023-05-28T11:37:59;9.35;;;8.52;;
21899;SDS011;11114;50.658;12.704;2023-05-28T11:40:49;11.75;;;8.57;;
21899;SDS011;11114;50.658;12.704;2023-05-28T11:43:36;9.38;;;8.57;;
21899;SDS011;11114;50.658;12.704;2023-05-28T11:46:23;9.85;;;8.93;;
21899;SDS011;11114;50.658;12.704;2023-05-28T11:49:10;9.38;;;8.57;;
21899;SDS011;11114;50.658;12.704;2023-05-28T11:51:56;9.65;;;8.75;;
21899;SDS011;11114;50.658;12.704;2023-05-28T11:54:44;9.00;;;8.25;;
21899;SDS011;11114;50.658;12.704;2023-05-28T11:57:34;9.43;;;8.40;;
21899;SDS011;11114;50.658;12.704;2023-05-28T12:00:31;8.68;;;7.97;;
21899;SDS011;11114;50.658;12.704;2023-05-28T12:03:27;9.93;;;8.93;;
21899;SDS011;11114;50.658;12.704;2023-05-28T12:06:13;9.68;;;8.77;;
21899;SDS011;11114;50.658;12.704;2023-05-28T12:12:11;8.80;;;7.90;;
21899;SDS011;11114;50.658;12.704;2023-05-28T12:14:57;9.13;;;8.30;;
21899;SDS011;11114;50.658;12.704;2023-05-28T12:17:44;9.13;;;8.20;;
21899;SDS011;11114;50.658;12.704;2023-05-28T12:20:36;9.13;;;8.25;;
21899;SDS011;11114;50.658;12.704;2023-05-28T12:23:26;9.48;;;8.50;;
21899;SDS011;11114;50.658;12.704;2023-05-28T12:26:13;8.95;;;8.02;;
21899;SDS011;11114;50.658;12.704;2023-05-28T12:29:01;10.05;;;9.05;;
21899;SDS011;11114;50.658;12.704;2023-05-28T12:31:56;9.30;;;8.45;;
21899;SDS011;11114;50.658;12.704;2023-05-28T12:34:43;10.10;;;8.50;;
21899;SDS011;11114;50.658;12.704;2023-05-28T12:37:29;9.32;;;8.50;;
21899;SDS011;11114;50.658;12.704;2023-05-28T12:40:16;9.38;;;8.40;;
21899;SDS011;11114;50.658;12.704;2023-05-28T12:43:03;10.98;;;8.95;;
21899;SDS011;11114;50.658;12.704;2023-05-28T12:45:50;9.65;;;8.85;;
21899;SDS011;11114;50.658;12.704;2023-05-28T12:48:38;9.57;;;8.68;;
21899;SDS011;11114;50.658;12.704;2023-05-28T12:51:25;10.02;;;8.60;;
21899;SDS011;11114;50.658;12.704;2023-05-28T12:54:11;11.25;;;10.05;;
21899;SDS011;11114;50.658;12.704;2023-05-28T12:56:58;9.93;;;8.70;;
21899;SDS011;11114;50.658;12.704;2023-05-28T12:59:45;9.88;;;8.98;;
21899;SDS011;11114;50.658;12.704;2023-05-28T13:02:31;9.73;;;8.65;;
21899;SDS011;11114;50.658;12.704;2023-05-28T13:05:20;10.15;;;9.27;;
21899;SDS011;11114;50.658;12.704;2023-05-28T13:08:07;10.73;;;9.63;;
21899;SDS011;11114;50.658;12.704;2023-05-28T13:10:53;10.57;;;9.48;;
21899;SDS011;11114;50.658;12.704;2023-05-28T13:13:40;9.82;;;8.98;;
21899;SDS011;11114;50.658;12.704;2023-05-28T13:16:27;10.30;;;9.40;;
21899;SDS011;11114;50.658;12.704;2023-05-28T13:19:13;9.68;;;8.88;;
21899;SDS011;11114;50.658;12.704;2023-05-28T13:21:59;10.02;;;9.23;;
21899;SDS011;11114;50.658;12.704;2023-05-28T13:24:45;10.93;;;9.30;;
21899;SDS011;11114;50.658;12.704;2023-05-28T13:27:32;10.55;;;9.65;;
21899;SDS011;11114;50.658;12.704;2023-05-28T13:30:21;10.73;;;9.70;;
21899;SDS011;11114;50.658;12.704;2023-05-28T13:33:07;10.85;;;9.70;;
21899;SDS011;11114;50.658;12.704;2023-05-28T13:35:55;10.90;;;9.80;;
21899;SDS011;11114;50.658;12.704;2023-05-28T13:38:45;11.60;;;9.65;;
21899;SDS011;11114;50.658;12.704;2023-05-28T13:41:33;11.48;;;9.70;;
21899;SDS011;11114;50.658;12.704;2023-05-28T13:44:19;9.60;;;8.80;;
21899;SDS011;11114;50.658;12.704;2023-05-28T13:47:06;9.48;;;8.60;;
21899;SDS011;11114;50.658;12.704;2023-05-28T13:49:53;10.98;;;9.40;;
21899;SDS011;11114;50.658;12.704;2023-05-28T13:52:39;9.23;;;8.48;;
21899;SDS011;11114;50.658;12.704;2023-05-28T13:55:25;10.90;;;9.57;;
21899;SDS011;11114;50.658;12.704;2023-05-28T13:58:11;13.77;;;9.73;;
21899;SDS011;11114;50.658;12.704;2023-05-28T14:00:58;9.80;;;8.60;;
21899;SDS011;11114;50.658;12.704;2023-05-28T14:03:45;9.27;;;8.50;;
21899;SDS011;11114;50.658;12.704;2023-05-28T14:06:32;8.82;;;8.02;;
21899;SDS011;11114;50.658;12.704;2023-05-28T14:09:19;9.10;;;8.20;;
21899;SDS011;11114;50.658;12.704;2023-05-28T14:12:05;10.82;;;9.02;;
21899;SDS011;11114;50.658;12.704;2023-05-28T14:15:07;8.80;;;7.68;;
21899;SDS011;11114;50.658;12.704;2023-05-28T14:17:54;8.95;;;8.05;;
21899;SDS011;11114;50.658;12.704;2023-05-28T14:20:40;8.30;;;7.35;;
21899;SDS011;11114;50.658;12.704;2023-05-28T14:23:27;9.55;;;8.23;;
21899;SDS011;11114;50.658;12.704;2023-05-28T14:26:14;8.02;;;7.32;;
21899;SDS011;11114;50.658;12.704;2023-05-28T14:29:01;8.20;;;7.30;;
21899;SDS011;11114;50.658;12.704;2023-05-28T14:31:48;8.80;;;8.00;;
21899;SDS011;11114;50.658;12.704;2023-05-28T14:34:35;9.13;;;8.23;;
21899;SDS011;11114;50.658;12.704;2023-05-28T14:37:22;7.78;;;7.03;;
21899;SDS011;11114;50.658;12.704;2023-05-28T14:40:08;9.30;;;7.13;;
21899;SDS011;11114;50.658;12.704;2023-05-28T14:42:54;7.95;;;7.25;;
21899;SDS011;11114;50.658;12.704;2023-05-28T14:45:42;9.10;;;7.78;;
21899;SDS011;11114;50.658;12.704;2023-05-28T14:48:32;8.05;;;7.07;;
21899;SDS011;11114;50.658;12.704;2023-05-28T14:51:18;7.88;;;7.18;;
21899;SDS011;11114;50.658;12.704;2023-05-28T14:54:05;7.78;;;7.07;;
21899;SDS011;11114;50.658;12.704;2023-05-28T14:56:51;12.98;;;7.85;;
21899;SDS011;11114;50.658;12.704;2023-05-28T14:59:38;8.43;;;6.88;;
21899;SDS011;11114;50.658;12.704;2023-05-28T15:02:25;7.97;;;6.35;;
21899;SDS011;11114;50.658;12.704;2023-05-28T15:05:11;8.70;;;6.93;;
21899;SDS011;11114;50.658;12.704;2023-05-28T15:07:57;7.43;;;6.47;;
21899;SDS011;11114;50.658;12.704;2023-05-28T15:10:43;8.05;;;7.25;;
21899;SDS011;11114;50.658;12.704;2023-05-28T15:13:30;7.97;;;7.18;;
21899;SDS011;11114;50.658;12.704;2023-05-28T15:16:16;7.53;;;6.82;;
21899;SDS011;11114;50.658;12.704;2023-05-28T15:19:03;9.40;;;6.88;;
21899;SDS011;11114;50.658;12.704;2023-05-28T15:21:50;9.23;;;7.10;;
21899;SDS011;11114;50.658;12.704;2023-05-28T15:24:37;10.70;;;7.13;;
21899;SDS011;11114;50.658;12.704;2023-05-28T15:27:23;7.88;;;7.18;;
21899;SDS011;11114;50.658;12.704;2023-05-28T15:30:10;7.63;;;6.93;;
21899;SDS011;11114;50.658;12.704;2023-05-28T15:32:58;8.10;;;7.30;;
21899;SDS011;11114;50.658;12.704;2023-05-28T15:35:46;9.13;;;8.30;;
21899;SDS011;11114;50.658;12.704;2023-05-28T15:38:32;7.93;;;6.88;;
21899;SDS011;11114;50.658;12.704;2023-05-28T15:41:19;7.80;;;7.00;;
21899;SDS011;11114;50.658;12.704;2023-05-28T15:44:05;9.00;;;6.75;;
21899;SDS011;11114;50.658;12.704;2023-05-28T15:46:51;7.75;;;6.93;;
21899;SDS011;11114;50.658;12.704;2023-05-28T15:49:38;8.05;;;6.70;;
21899;SDS011;11114;50.658;12.704;2023-05-28T15:52:25;9.13;;;7.50;;
21899;SDS011;11114;50.658;12.704;2023-05-28T15:55:11;7.70;;;6.93;;
21899;SDS011;11114;50.658;12.704;2023-05-28T15:57:57;8.07;;;7.35;;
21899;SDS011;11114;50.658;12.704;2023-05-28T16:00:44;10.52;;;9.45;;
21899;SDS011;11114;50.658;12.704;2023-05-28T16:03:33;9.88;;;8.93;;
21899;SDS011;11114;50.658;12.704;2023-05-28T16:06:25;10.57;;;9.50;;
21899;SDS011;11114;50.658;12.704;2023-05-28T16:09:12;10.50;;;9.43;;
21899;SDS011;11114;50.658;12.704;2023-05-28T16:11:58;9.38;;;7.53;;
21899;SDS011;11114;50.658;12.704;2023-05-28T16:14:46;8.35;;;7.55;;
21899;SDS011;11114;50.658;12.704;2023-05-28T16:17:36;7.70;;;6.90;;
21899;SDS011;11114;50.658;12.704;2023-05-28T16:20:25;8.40;;;7.53;;
21899;SDS011;11114;50.658;12.704;2023-05-28T16:23:11;9.00;;;8.25;;
21899;SDS011;11114;50.658;12.704;2023-05-28T16:25:59;8.63;;;7.82;;
21899;SDS011;11114;50.658;12.704;2023-05-28T16:28:46;9.20;;;8.32;;
21899;SDS011;11114;50.658;12.704;2023-05-28T16:31:35;8.25;;;7.55;;
21899;SDS011;11114;50.658;12.704;2023-05-28T16:34:24;7.97;;;7.28;;
21899;SDS011;11114;50.658;12.704;2023-05-28T16:37:16;8.07;;;7.38;;
21899;SDS011;11114;50.658;12.704;2023-05-28T16:40:04;8.13;;;7.32;;